General Aviation Weather

Text Reports

Enter one or more of the following location identifiers separated by a space:

Zip Code, Four-Character ICAO or Three-Character IATA airport codes.

METAR - Aviation Routine Weather Report
PAMM - Metlakatla, Alaska
Updated at 1:56 AM GMT on November 25, 2014 (4:56 PM AKST):
METAR PAMM 250156Z AUTO 21004KT 10SM BKN055 OVC070 07/03 A3000 RMK AO1
TAF - Terminal Area Forecast
PAMM - Metlakatla, Alaska
Updated at 1:56 AM GMT on November 25, 2014 (4:56 PM AKST):
No TAF is currently available for this location.
Decoded:
No decoded TAF is available.
PIREP - Pilot Weather Report
PAMM - Metlakatla, Alaska
Updated at 1:56 AM GMT on November 25, 2014 (4:56 PM AKST):
No PIREP is currently available for this location.
AIRMET - Airmens Meteorological Information
PAMM - Metlakatla, Alaska
Updated at 1:56 AM GMT on November 25, 2014 (4:56 PM AKST):
No AIRMET is currently available for this location.
SIGMET - Significant Meteorological Information
PAMM - Metlakatla, Alaska
Updated at 1:56 AM GMT on November 25, 2014 (4:56 PM AKST):
No SIGMET is currently available for this location.
NOTAM - Notice to Airmen
PAMM - Metlakatla, Alaska
Updated at 1:56 AM GMT on November 25, 2014 (4:56 PM AKST):
No NOTAM is currently available for this location.
Forecast Area
PAMM - Metlakatla, Alaska
Updated at 1:56 AM GMT on November 25, 2014 (4:56 PM AKST):
No NOTAM is currently available for this location.
Aviation Weather Maps